Terminal Aerodrome Forecast
Issued by NWS

Home | Current Version | Previous Version | Text Only | Print | Product List | Glossary On
Versions: 1 2 3 4 5 6 7 8 9 10 11 12 13 14 15 16 17 18
000
FTUS43 KLSX 221120
TAFUIN
TAF
KUIN 221120Z 2212/2312 22009KT P6SM VCTS SCT045CB
     FM221500 24013KT P6SM SCT045
     FM222300 28010KT P6SM SCT200
     FM230200 32006KT P6SM SCT200=

USA.gov is the U.S. government's official web portal to all federal, state and local government web resources and services.